Time;durP1;ratioP1;P1;durP2;ratioP2;P2;SDS_P1;SDS_P2;PMS_P1;PMS_P2;Temp;Humidity;BMP_temperature;BMP_pressure;BME280_temperature;BME280_humidity;BME280_pressure;Samples;Min_cycle;Max_cycle;Signal;HPM_P1;HPM_P2
2024/01/22 00:01:02;;;;;;;1.08;1.08;;;;;;;-2.77;80.41;101259.78;5113249;28;19926;-77
2024/01/22 00:03:31;;;;;;;3.17;2.85;;;;;;;-2.68;80.22;101268.72;5114082;28;20036;-77
2024/01/22 00:06:01;;;;;;;2.40;1.77;;;;;;;-2.77;80.61;101248.91;5113604;28;20156;-77
2024/01/22 00:08:31;;;;;;;2.90;2.70;;;;;;;-2.72;80.43;101261.03;5113122;28;20046;-77
2024/01/22 00:10:59;;;;;;;3.92;3.65;;;;;;;-2.73;80.27;101261.75;5113135;28;20126;-77
2024/01/22 00:13:28;;;;;;;0.50;0.50;;;;;;;-2.81;80.33;101260.28;5114426;28;20508;-77
2024/01/22 00:15:58;;;;;;;1.25;1.17;;;;;;;-2.88;80.27;101260.56;5112991;28;20478;-77
2024/01/22 00:18:27;;;;;;;1.23;1.20;;;;;;;-2.91;80.50;101252.88;5113206;28;20032;-77
2024/01/22 00:20:56;;;;;;;0.70;0.70;;;;;;;-3.01;80.34;101237.03;5114369;28;20044;-77
2024/01/22 00:23:27;;;;;;;1.33;1.20;;;;;;;-3.02;80.46;101256.13;5114162;28;20043;-77
2024/01/22 00:25:56;;;;;;;0.60;0.60;;;;;;;-3.08;79.83;101253.19;5114584;28;20063;-77
2024/01/22 00:28:25;;;;;;;1.02;1.02;;;;;;;-3.10;80.19;101252.19;5114079;28;20043;-78
2024/01/22 00:30:54;;;;;;;1.13;1.10;;;;;;;-3.21;80.09;101250.47;5114201;28;20039;-77
2024/01/22 00:33:23;;;;;;;2.22;2.10;;;;;;;-3.19;79.71;101243.09;5113855;28;20101;-78
2024/01/22 00:35:51;;;;;;;1.85;1.75;;;;;;;-3.16;79.80;101244.22;5114222;28;20039;-78
2024/01/22 00:38:21;;;;;;;7.80;3.40;;;;;;;-3.18;79.88;101247.31;5113996;28;20044;-78
2024/01/22 00:40:51;;;;;;;7.03;5.80;;;;;;;-3.56;79.85;101196.91;5113169;28;20036;-78
2024/01/22 00:43:20;;;;;;;4.30;3.92;;;;;;;-3.44;80.15;101222.84;5114680;28;20123;-77
2024/01/22 00:45:49;;;;;;;3.95;2.22;;;;;;;-3.42;79.75;101241.28;5112839;28;20055;-78
2024/01/22 00:48:17;;;;;;;1.45;1.33;;;;;;;-3.48;80.02;101238.31;5114645;28;20130;-78
2024/01/22 00:50:46;;;;;;;4.65;2.40;;;;;;;-3.48;80.02;101235.81;5114295;28;20036;-78
2024/01/22 00:53:16;;;;;;;3.45;3.15;;;;;;;-3.46;79.74;101244.31;5112952;28;20039;-77
2024/01/22 00:55:45;;;;;;;2.10;2.00;;;;;;;-3.52;79.94;101238.81;5113538;28;20052;-78
2024/01/22 00:58:15;;;;;;;4.50;2.65;;;;;;;-3.57;80.15;101237.56;5112593;28;20032;-77
2024/01/22 01:00:44;;;;;;;2.40;2.20;;;;;;;-3.59;79.59;101246.56;5112777;28;20403;-77
2024/01/22 01:03:12;;;;;;;2.13;2.03;;;;;;;-3.72;79.85;101233.88;5095640;28;20047;-77
2024/01/22 01:05:41;;;;;;;5.05;1.50;;;;;;;-3.64;79.84;101260.28;5112973;28;20040;-77
2024/01/22 01:08:10;;;;;;;2.92;2.67;;;;;;;-3.62;79.96;101262.16;5112723;28;20050;-76
2024/01/22 01:10:39;;;;;;;0.68;0.68;;;;;;;-3.54;80.65;101275.25;5113828;28;20040;-77
2024/01/22 01:13:08;;;;;;;0.75;0.75;;;;;;;-3.51;80.40;101271.38;5113804;28;20036;-77
2024/01/22 01:15:38;;;;;;;1.63;1.52;;;;;;;-3.43;80.18;101276.97;5112417;28;20097;-77
2024/01/22 01:18:07;;;;;;;1.58;1.48;;;;;;;-3.42;80.49;101278.72;5116275;28;20096;-77
2024/01/22 01:20:37;;;;;;;1.17;1.08;;;;;;;-3.38;80.69;101278.19;5117469;28;20494;-77
2024/01/22 01:23:06;;;;;;;0.90;0.85;;;;;;;-3.36;80.89;101266.75;5117533;28;20485;-77
2024/01/22 01:25:36;;;;;;;0.85;0.85;;;;;;;-3.38;80.71;101262.38;5116050;28;20401;-77
2024/01/22 01:28:06;;;;;;;3.05;2.85;;;;;;;-3.40;80.96;101269.72;5116443;28;20042;-77
2024/01/22 01:30:35;;;;;;;;;;;;;;;-3.33;80.61;101274.44;5118261;28;20134;-77
2024/01/22 01:33:06;;;;;;;0.60;0.60;;;;;;;-3.28;80.58;101255.72;5117457;28;19965;-77
2024/01/22 01:35:35;;;;;;;1.08;1.02;;;;;;;-3.23;80.64;101246.97;5117382;28;20055;-76
2024/01/22 01:38:04;;;;;;;5.78;3.40;;;;;;;-3.24;80.56;101242.75;5117284;28;20051;-76
2024/01/22 01:40:33;;;;;;;1.85;1.38;;;;;;;-3.30;80.86;101237.25;5117656;28;20036;-77
2024/01/22 01:43:02;;;;;;;1.67;1.58;;;;;;;-3.40;80.22;101234.78;5117337;28;20039;-75
2024/01/22 01:45:32;;;;;;;1.48;1.40;;;;;;;-3.44;80.78;101242.78;5074372;28;20045;-77
2024/01/22 01:48:01;;;;;;;1.45;1.40;;;;;;;-3.46;80.27;101239.31;5074404;28;20526;-76
2024/01/22 01:50:31;;;;;;;6.15;3.17;;;;;;;-3.45;80.60;101241.91;5057668;28;20044;-76
2024/01/22 01:53:02;;;;;;;0.90;0.90;;;;;;;-3.46;80.39;101244.31;5074484;28;20072;-77
2024/01/22 01:55:31;;;;;;;3.15;2.92;;;;;;;-3.47;80.36;101230.06;5074353;28;20104;-77
2024/01/22 01:58:02;;;;;;;1.40;1.30;;;;;;;-3.55;80.00;101228.59;5074455;28;20113;-79
2024/01/22 02:00:34;;;;;;;1.90;1.80;;;;;;;-3.65;80.19;101231.13;5058254;28;20135;-78
2024/01/22 02:03:04;;;;;;;;;;;;;;;-3.71;80.50;101230.59;5075289;28;20044;-78
2024/01/22 02:05:34;;;;;;;1.08;1.08;;;;;;;-3.77;80.24;101225.16;5057214;28;20255;-78
2024/01/22 02:08:04;;;;;;;0.82;0.82;;;;;;;-3.71;79.90;101220.63;5073890;28;20055;-78
2024/01/22 02:10:33;;;;;;;5.30;4.03;;;;;;;-3.71;80.40;101215.66;5057235;28;20055;-78
2024/01/22 02:13:04;;;;;;;2.42;2.25;;;;;;;-3.76;79.90;101211.91;5073937;28;20119;-79
2024/01/22 02:15:33;;;;;;;1.30;1.23;;;;;;;-3.81;79.86;101206.56;5074985;28;20045;-79
2024/01/22 02:18:02;;;;;;;1.80;1.70;;;;;;;-3.76;80.46;101207.78;5116967;28;20047;-79
2024/01/22 02:20:32;;;;;;;4.03;3.70;;;;;;;-3.80;80.01;101199.94;5098755;28;20062;-78
2024/01/22 02:23:05;;;;;;;1.45;1.35;;;;;;;-3.82;80.69;101201.47;5116978;28;20478;-79
2024/01/22 02:25:34;;;;;;;1.70;1.60;;;;;;;-3.78;80.77;101205.94;5115440;28;20040;-78
2024/01/22 02:28:03;;;;;;;1.95;1.80;;;;;;;-3.87;80.10;101207.69;5116245;28;20065;-78
2024/01/22 02:30:32;;;;;;;2.08;1.00;;;;;;;-3.92;80.10;101198.97;5117089;28;20138;-79
2024/01/22 02:33:01;;;;;;;1.65;1.55;;;;;;;-3.94;80.29;101205.47;5115024;28;20082;-79
2024/01/22 02:35:30;;;;;;;3.28;3.08;;;;;;;-3.91;80.01;101206.56;5114953;28;20043;-79
2024/01/22 02:37:59;;;;;;;1.02;1.02;;;;;;;-4.00;79.89;101194.97;5116300;28;20043;-76
2024/01/22 02:40:29;;;;;;;1.67;1.55;;;;;;;-3.93;80.22;101202.19;5114703;28;20085;-78
2024/01/22 02:42:58;;;;;;;3.55;3.25;;;;;;;-3.82;80.05;101189.00;5114865;28;20489;-79
2024/01/22 02:45:27;;;;;;;;;;;;;;;-3.83;79.87;101184.75;5098111;28;20044;-78
2024/01/22 02:47:57;;;;;;;1.00;1.00;;;;;;;-3.90;80.39;101182.50;5116095;28;19920;-78
2024/01/22 02:50:26;;;;;;;0.85;0.85;;;;;;;-3.92;80.01;101174.03;5116506;28;20513;-78
2024/01/22 02:52:55;;;;;;;4.68;4.22;;;;;;;-4.13;80.34;101130.84;5116310;28;20044;-78
2024/01/22 02:55:24;;;;;;;;;;;;;;;-3.96;80.22;101157.09;5116467;28;20048;-78
2024/01/22 02:57:54;;;;;;;0.73;0.70;;;;;;;-4.05;80.58;101161.34;5116698;28;19919;-78
2024/01/22 03:00:23;;;;;;;5.20;3.03;;;;;;;-4.07;80.28;101154.63;5116358;28;20082;-78
2024/01/22 03:02:53;;;;;;;1.52;1.48;;;;;;;-4.10;80.60;101154.34;5115505;28;20043;-79
2024/01/22 03:05:22;;;;;;;2.35;2.15;;;;;;;-4.09;80.45;101160.22;5114274;28;20119;-78
2024/01/22 03:07:51;;;;;;;;;;;;;;;-4.13;80.62;101164.06;5114699;28;20042;-79
2024/01/22 03:10:20;;;;;;;1.58;1.48;;;;;;;-4.09;80.30;101156.13;5115413;28;19920;-78
2024/01/22 03:12:49;;;;;;;9.90;3.75;;;;;;;-4.11;80.07;101152.63;5096809;28;20444;-78
2024/01/22 03:15:20;;;;;;;8.13;2.90;;;;;;;-4.13;80.48;101133.31;5115389;28;20046;-79
2024/01/22 03:17:50;;;;;;;1.60;1.50;;;;;;;-4.11;80.21;101127.72;5115112;28;20069;-79
2024/01/22 03:20:20;;;;;;;2.40;1.77;;;;;;;-4.22;80.30;101127.56;5098331;28;20100;-79
2024/01/22 03:22:49;;;;;;;1.75;1.65;;;;;;;-4.24;80.24;101137.44;5116011;28;20027;-80
2024/01/22 03:25:18;;;;;;;1.83;1.70;;;;;;;-4.33;80.30;101129.22;5115828;28;20163;-79
2024/01/22 03:27:47;;;;;;;8.05;4.25;;;;;;;-4.33;80.01;101126.72;5114556;28;20036;-79
2024/01/22 03:30:16;;;;;;;3.67;3.38;;;;;;;-4.27;80.75;101126.38;5097217;28;20044;-77
2024/01/22 03:32:47;;;;;;;1.23;1.23;;;;;;;-4.21;80.78;101119.34;5097424;28;20070;-79
2024/01/22 03:35:16;;;;;;;1.00;0.95;;;;;;;-4.21;80.80;101122.72;5115889;28;20042;-78
2024/01/22 03:37:45;;;;;;;0.55;0.55;;;;;;;-4.12;80.36;101116.00;5116019;28;20055;-79
2024/01/22 03:40:14;;;;;;;0.85;0.85;;;;;;;-4.04;80.46;101108.25;5114626;28;20497;-80
2024/01/22 03:42:43;;;;;;;1.35;1.25;;;;;;;-4.04;80.69;101093.28;5114876;28;20047;-76
2024/01/22 03:45:14;;;;;;;1.95;1.85;;;;;;;-4.05;80.66;101081.59;5113901;28;20111;-76
2024/01/22 03:47:43;;;;;;;1.88;1.77;;;;;;;-4.10;80.43;101072.09;5115153;28;20117;-76
2024/01/22 03:50:14;;;;;;;0.60;0.60;;;;;;;-4.21;80.39;101070.41;5114578;28;20082;-75
2024/01/22 03:52:42;;;;;;;1.83;1.70;;;;;;;-4.23;80.84;101084.38;5113394;28;20043;-76
2024/01/22 03:55:11;;;;;;;0.68;0.68;;;;;;;-4.28;80.04;101089.72;5115014;28;20035;-76
2024/01/22 03:57:40;;;;;;;1.73;1.63;;;;;;;-4.25;80.58;101098.28;5114498;28;20079;-76
2024/01/22 04:00:10;;;;;;;4.25;2.72;;;;;;;-4.23;80.43;101099.31;5114276;28;20501;-75
2024/01/22 04:02:39;;;;;;;1.48;1.35;;;;;;;-4.30;80.72;101084.63;5114229;28;20092;-76
2024/01/22 04:05:10;;;;;;;1.17;1.17;;;;;;;-4.25;80.51;101097.44;5114712;28;20512;-76
2024/01/22 04:07:41;;;;;;;2.83;2.13;;;;;;;-4.30;80.09;101094.59;5114585;28;20271;-76
2024/01/22 04:10:12;;;;;;;2.90;2.70;;;;;;;-4.29;80.42;101101.31;5114628;28;20112;-76
2024/01/22 04:12:41;;;;;;;2.08;1.65;;;;;;;-4.29;80.54;101108.78;5113393;28;20043;-76
2024/01/22 04:15:10;;;;;;;1.60;1.50;;;;;;;-4.25;80.49;101115.75;5114396;28;20147;-76
2024/01/22 04:17:39;;;;;;;1.13;1.13;;;;;;;-4.31;80.24;101111.88;5113209;28;20042;-75
2024/01/22 04:20:11;;;;;;;0.88;0.88;;;;;;;-4.32;80.02;101110.16;5079941;28;20040;-75
2024/01/22 04:22:42;;;;;;;2.10;1.95;;;;;;;-4.24;80.39;101102.53;5114436;28;20046;-81
2024/01/22 04:25:11;;;;;;;1.63;1.52;;;;;;;-4.28;80.01;101115.50;5113928;28;20039;-79
2024/01/22 04:27:40;;;;;;;8.98;5.18;;;;;;;-4.27;79.79;101108.91;5096876;28;20114;-79
2024/01/22 04:30:11;;;;;;;0.70;0.70;;;;;;;-4.28;79.90;101110.53;5097309;28;20052;-80
2024/01/22 04:32:40;;;;;;;3.50;3.20;;;;;;;-4.25;80.36;101107.41;5114362;28;20040;-80
2024/01/22 04:35:09;;;;;;;1.30;1.20;;;;;;;-4.24;79.60;101110.03;5113101;28;20138;-79
2024/01/22 04:37:38;;;;;;;0.80;0.80;;;;;;;-4.26;80.03;101111.53;5114736;28;20040;-80
2024/01/22 04:40:14;;;;;;;1.58;1.48;;;;;;;-4.29;79.86;101106.28;5097064;28;20073;-80
2024/01/22 04:42:44;;;;;;;0.65;0.65;;;;;;;-4.24;79.90;101124.09;5114607;28;20043;-80
2024/01/22 04:45:13;;;;;;;4.72;3.50;;;;;;;-4.30;80.21;101122.00;5113751;28;20089;-80
2024/01/22 04:47:42;;;;;;;2.33;2.22;;;;;;;-4.31;79.54;101117.75;5114244;28;20042;-80
2024/01/22 04:50:11;;;;;;;1.08;1.00;;;;;;;-4.57;79.45;101077.41;5113772;28;20515;-80
2024/01/22 04:52:40;;;;;;;4.75;2.80;;;;;;;-4.54;79.63;101099.22;5116416;28;20038;-79
2024/01/22 04:55:09;;;;;;;0.50;0.50;;;;;;;-4.48;79.75;101118.00;5116902;28;20134;-79
2024/01/22 04:57:50;;;;;;;1.10;1.10;;;;;;;-4.51;80.02;101127.72;5116857;28;20051;-80
2024/01/22 05:00:20;;;;;;;1.35;1.25;;;;;;;-4.47;80.01;101128.84;5118393;28;20062;-80
2024/01/22 05:02:50;;;;;;;2.92;2.67;;;;;;;-4.50;79.35;101124.50;5117351;28;20089;-80
2024/01/22 05:05:22;;;;;;;2.67;2.47;;;;;;;-4.50;79.65;101119.50;5117121;28;20044;-76
2024/01/22 05:07:51;;;;;;;;;;;;;;;-4.48;79.77;101120.50;5099982;28;20047;-76
2024/01/22 05:10:20;;;;;;;2.00;1.90;;;;;;;-4.61;79.41;101117.78;5117926;28;19919;-76
2024/01/22 05:12:50;;;;;;;4.65;3.00;;;;;;;-4.64;79.43;101119.13;5118118;28;20031;-76
2024/01/22 05:15:19;;;;;;;4.43;2.70;;;;;;;-4.62;79.61;101113.53;5118058;28;20063;-80
2024/01/22 05:17:49;;;;;;;4.25;3.95;;;;;;;-4.61;79.57;101105.31;5117223;28;20051;-80
2024/01/22 05:20:18;;;;;;;1.13;1.05;;;;;;;-4.79;78.97;101114.63;5118154;28;20448;-79
2024/01/22 05:22:48;;;;;;;5.07;1.60;;;;;;;-4.77;79.73;101107.28;5118325;28;20039;-79
2024/01/22 05:25:17;;;;;;;;;;;;;;;-4.72;79.82;101111.03;5050290;28;20075;-79
2024/01/22 05:27:47;;;;;;;1.05;1.02;;;;;;;-4.73;79.75;101119.25;5116782;28;19920;-80
2024/01/22 05:30:18;;;;;;;2.85;2.65;;;;;;;-5.23;79.71;101037.06;5118148;28;20047;-80
2024/01/22 05:32:47;;;;;;;2.30;2.10;;;;;;;-4.69;80.05;101121.25;5116408;28;20527;-79
2024/01/22 05:35:20;;;;;;;3.30;3.05;;;;;;;-5.12;79.65;101042.19;5117747;28;20048;-80
2024/01/22 05:37:50;;;;;;;6.80;4.38;;;;;;;-4.76;79.99;101128.97;5117882;28;20040;-80
2024/01/22 05:40:19;;;;;;;1.90;1.80;;;;;;;-4.68;80.28;101112.16;5099621;28;20089;-80
2024/01/22 05:42:48;;;;;;;;;;;;;;;-4.69;80.08;101111.28;5117989;28;20040;-79
2024/01/22 05:45:19;;;;;;;4.50;3.42;;;;;;;-4.79;80.36;101118.72;5099302;28;19919;-80
2024/01/22 05:47:49;;;;;;;2.90;2.70;;;;;;;-4.78;79.82;101108.91;5098880;28;20044;-80
2024/01/22 05:50:18;;;;;;;0.47;0.47;;;;;;;-4.88;79.68;101108.03;5117362;28;20040;-80
2024/01/22 05:52:47;;;;;;;1.08;1.08;;;;;;;-4.86;79.71;101107.41;5115764;28;20508;-80
2024/01/22 05:55:17;;;;;;;0.80;0.80;;;;;;;-4.96;80.32;101086.59;5098763;28;20054;-80
2024/01/22 05:57:48;;;;;;;7.35;4.38;;;;;;;-4.83;79.61;101106.78;5115946;28;20051;-79
2024/01/22 06:00:18;;;;;;;2.88;2.67;;;;;;;-4.80;80.32;101100.44;5115911;28;20052;-79
2024/01/22 06:02:49;;;;;;;2.50;1.63;;;;;;;-4.81;79.98;101100.31;5116368;28;20052;-80
2024/01/22 06:05:19;;;;;;;0.57;0.57;;;;;;;-4.86;80.16;101101.56;5115468;28;20440;-79
2024/01/22 06:07:47;;;;;;;2.13;2.03;;;;;;;-4.79;80.62;101098.81;5117123;28;20031;-79
2024/01/22 06:10:17;;;;;;;0.75;0.75;;;;;;;-4.82;80.40;101099.44;5115694;28;20043;-79
2024/01/22 06:12:47;;;;;;;0.70;0.70;;;;;;;-4.79;80.21;101104.69;5116388;28;20190;-78
2024/01/22 06:15:16;;;;;;;2.22;2.03;;;;;;;-5.40;80.24;100997.50;5115998;28;20039;-79
2024/01/22 06:17:45;;;;;;;0.60;0.60;;;;;;;-4.95;80.00;101090.84;5097730;28;20043;-79
2024/01/22 06:20:17;;;;;;;1.88;1.77;;;;;;;-4.92;79.78;101091.09;5117026;28;20040;-80
2024/01/22 06:22:47;;;;;;;13.23;4.63;;;;;;;-4.90;80.20;101100.44;5116761;28;20497;-80
2024/01/22 06:25:16;;;;;;;2.08;1.73;;;;;;;-4.81;80.08;101095.34;5117166;28;20039;-79
2024/01/22 06:27:47;;;;;;;1.88;1.45;;;;;;;-4.84;80.13;101090.97;5115603;28;20070;-80
2024/01/22 06:30:16;;;;;;;0.63;0.63;;;;;;;-4.88;79.60;101096.47;5118000;28;20546;-79
2024/01/22 06:32:45;;;;;;;4.47;2.47;;;;;;;-4.82;80.03;101099.44;5116558;28;20043;-79
2024/01/22 06:35:16;;;;;;;3.60;3.25;;;;;;;-4.73;79.76;101091.88;5081289;28;20036;-76
2024/01/22 06:37:45;;;;;;;5.38;2.63;;;;;;;-4.68;79.79;101095.59;5116227;28;20039;-76
2024/01/22 06:40:16;;;;;;;1.15;1.08;;;;;;;-4.60;79.60;101094.59;5116002;28;20035;-76
2024/01/22 06:42:45;;;;;;;0.43;0.43;;;;;;;-4.54;80.08;101095.09;5116059;28;20505;-76
2024/01/22 06:45:14;;;;;;;1.05;1.02;;;;;;;-4.56;79.69;101099.09;5114360;28;20043;-76
2024/01/22 06:47:43;;;;;;;1.00;1.00;;;;;;;-4.56;79.83;101089.13;5115865;28;20408;-76
2024/01/22 06:50:12;;;;;;;2.88;2.67;;;;;;;-4.54;79.95;101097.59;5116057;28;20039;-76
2024/01/22 06:52:43;;;;;;;7.28;1.95;;;;;;;-4.50;80.02;101089.63;5115946;28;20036;-76
2024/01/22 06:55:12;;;;;;;6.90;3.30;;;;;;;-4.32;80.10;101081.13;5115927;28;20047;-76
2024/01/22 06:57:41;;;;;;;0.68;0.68;;;;;;;-3.84;80.05;101088.25;5113447;28;20486;-76
2024/01/22 07:00:11;;;;;;;2.58;2.40;;;;;;;-3.54;79.59;101090.63;5115491;27;20130;-76
2024/01/22 07:02:42;;;;;;;1.88;1.75;;;;;;;-3.08;80.15;101090.91;5114495;28;20055;-77
2024/01/22 07:05:11;;;;;;;1.90;1.80;;;;;;;-2.81;79.60;101062.97;5115549;28;20142;-77
2024/01/22 07:07:43;;;;;;;2.33;1.48;;;;;;;-2.92;78.42;101063.81;5111745;28;20120;-77
2024/01/22 07:10:13;;;;;;;0.73;0.73;;;;;;;-2.92;78.31;101075.41;5104316;28;20032;-77
2024/01/22 07:12:42;;;;;;;4.50;2.95;;;;;;;-3.00;78.27;101074.84;5103704;28;20171;-77
2024/01/22 07:15:12;;;;;;;1.37;1.27;;;;;;;-3.17;77.58;101075.22;5098859;28;20051;-77
2024/01/22 07:17:42;;;;;;;3.15;2.95;;;;;;;-3.27;77.68;101082.78;5114416;28;20052;-77
2024/01/22 07:20:16;;;;;;;1.83;1.73;;;;;;;-3.24;77.53;101088.00;5115279;28;20047;-77
2024/01/22 07:22:46;;;;;;;3.58;3.33;;;;;;;-3.08;77.57;101085.91;5109255;28;20036;-77
2024/01/22 07:25:18;;;;;;;1.83;1.70;;;;;;;-2.80;77.59;101089.69;5094848;28;20569;-77
2024/01/22 07:27:47;;;;;;;4.28;3.88;;;;;;;-2.58;77.31;101081.28;5093421;28;20036;-77
2024/01/22 07:30:16;;;;;;;5.53;4.65;;;;;;;-2.44;77.06;101080.66;5094731;28;20063;-77
2024/01/22 07:32:46;;;;;;;6.50;5.88;;;;;;;-2.28;76.84;101089.38;5094580;28;20456;-77
2024/01/22 07:35:17;;;;;;;1.33;1.23;;;;;;;-2.24;76.43;101080.47;5094993;28;20093;-77
2024/01/22 07:37:47;;;;;;;0.90;0.90;;;;;;;-2.21;76.65;101071.56;5093311;28;20044;-78
2024/01/22 07:40:18;;;;;;;2.03;1.92;;;;;;;-2.05;76.58;101073.53;5094492;28;20032;-78
2024/01/22 07:42:48;;;;;;;1.55;1.45;;;;;;;-2.07;76.31;101070.06;5098235;28;20051;-78
2024/01/22 07:45:17;;;;;;;;;;;;;;;-1.91;76.28;101077.00;5104182;28;20050;-78
2024/01/22 07:47:49;;;;;;;2.63;1.95;;;;;;;-1.82;76.01;101072.66;5104469;28;19934;-77
2024/01/22 07:50:18;;;;;;;1.80;1.45;;;;;;;-1.77;75.77;101059.69;5103224;28;20032;-78
2024/01/22 07:52:47;;;;;;;1.60;1.50;;;;;;;-1.57;75.59;101081.09;5103643;28;20501;-77
2024/01/22 07:55:17;;;;;;;5.35;2.47;;;;;;;-1.45;75.60;101066.94;5105013;28;20276;-78
2024/01/22 07:57:47;;;;;;;7.53;4.63;;;;;;;-1.39;75.09;101063.22;5100272;28;20456;-77
2024/01/22 08:00:16;;;;;;;5.70;1.87;;;;;;;-1.23;75.26;101056.75;5094216;28;20072;-77
2024/01/22 08:02:45;;;;;;;2.88;2.58;;;;;;;-1.11;75.25;101060.09;5092879;28;20398;-76
2024/01/22 08:05:14;;;;;;;4.90;3.78;;;;;;;-0.96;75.09;101061.97;5094147;28;20038;-74
2024/01/22 08:07:44;;;;;;;3.20;2.78;;;;;;;-0.83;75.07;101043.63;5092865;28;20067;-73
2024/01/22 08:10:14;;;;;;;2.60;1.95;;;;;;;-1.16;74.69;100981.28;5092807;28;20047;-73
2024/01/22 08:12:44;;;;;;;2.25;2.13;;;;;;;-0.73;74.71;101051.84;5092627;28;20146;-73
2024/01/22 08:15:14;;;;;;;4.15;2.60;;;;;;;-0.55;73.91;101042.13;5094018;28;20044;-73
2024/01/22 08:17:46;;;;;;;3.92;3.55;;;;;;;-0.38;74.21;101046.59;5093954;28;20049;-73
2024/01/22 08:20:17;;;;;;;2.53;2.33;;;;;;;-0.24;74.24;101050.84;5093970;28;20113;-74
2024/01/22 08:22:48;;;;;;;4.45;2.97;;;;;;;-0.09;73.70;101053.47;5094233;28;20048;-75
2024/01/22 08:25:19;;;;;;;24.23;5.38;;;;;;;0.00;73.38;101046.56;5093038;28;20055;-74
2024/01/22 08:27:50;;;;;;;1.33;1.23;;;;;;;0.17;73.23;101048.44;5075080;28;20044;-75
2024/01/22 08:30:19;;;;;;;2.10;1.92;;;;;;;0.34;73.32;101039.44;5093068;28;20040;-75
2024/01/22 08:32:48;;;;;;;4.90;3.03;;;;;;;0.45;73.12;101043.50;5092447;28;20046;-73
2024/01/22 08:35:19;;;;;;;4.53;4.13;;;;;;;0.54;72.93;101039.03;5093853;28;20093;-74
2024/01/22 08:37:52;;;;;;;3.20;2.60;;;;;;;0.62;72.16;101022.78;5093511;28;20392;-77
2024/01/22 08:40:23;;;;;;;0.95;0.93;;;;;;;0.51;71.89;100994.50;5093689;28;20058;-75
2024/01/22 08:42:56;;;;;;;2.78;2.58;;;;;;;0.72;71.53;101006.63;5093461;28;20043;-76
2024/01/22 08:45:25;;;;;;;1.67;1.20;;;;;;;0.92;72.07;101009.50;5093647;28;20494;-73
2024/01/22 08:47:53;;;;;;;0.47;0.47;;;;;;;0.94;71.13;101002.94;5093522;28;20037;-73
2024/01/22 08:50:22;;;;;;;6.22;2.72;;;;;;;1.10;71.56;100997.16;5093820;28;20040;-74
2024/01/22 08:52:54;;;;;;;6.77;4.00;;;;;;;1.13;71.18;100990.66;5093691;28;20040;-74
2024/01/22 08:55:24;;;;;;;1.63;1.52;;;;;;;1.29;70.88;101013.41;5093441;28;20040;-71
2024/01/22 08:57:55;;;;;;;3.70;1.52;;;;;;;1.42;70.26;100999.00;5093428;28;20036;-73
2024/01/22 09:00:24;;;;;;;12.35;4.07;;;;;;;1.51;70.15;101005.44;5093607;28;20044;-72
2024/01/22 09:02:53;;;;;;;2.72;2.47;;;;;;;1.66;70.08;100996.19;5093461;28;20028;-72
2024/01/22 09:05:22;;;;;;;2.33;1.43;;;;;;;1.75;69.82;101005.91;5096499;28;20047;-72
2024/01/22 09:07:50;;;;;;;0.65;0.65;;;;;;;1.97;69.16;101018.88;5105252;28;20046;-72
2024/01/22 09:10:22;;;;;;;2.05;1.95;;;;;;;2.00;68.30;101003.94;5102332;28;20067;-71
2024/01/22 09:12:51;;;;;;;3.63;1.67;;;;;;;2.13;68.28;101003.84;5103074;28;20043;-72
2024/01/22 09:15:22;;;;;;;1.83;1.73;;;;;;;2.06;66.92;100999.25;5076519;28;20036;-72
2024/01/22 09:17:51;;;;;;;2.08;1.90;;;;;;;2.14;67.23;100997.13;5103211;28;20040;-72
2024/01/22 09:20:21;;;;;;;0.73;0.73;;;;;;;2.23;66.64;100977.50;5110711;28;20036;-71
2024/01/22 09:22:49;;;;;;;1.13;1.02;;;;;;;2.26;65.92;100978.50;5114330;28;20722;-71
2024/01/22 09:25:19;;;;;;;1.07;1.00;;;;;;;2.21;65.57;100963.97;5113841;28;20382;-71
2024/01/22 09:27:49;;;;;;;2.33;2.15;;;;;;;2.21;64.60;100969.84;5113699;28;20367;-72
2024/01/22 09:30:18;;;;;;;0.95;0.95;;;;;;;2.27;64.23;100954.19;5101568;28;20048;-72
2024/01/22 09:32:50;;;;;;;1.10;1.05;;;;;;;2.37;64.16;100947.22;5075282;28;20050;-71
2024/01/22 09:35:20;;;;;;;1.15;1.15;;;;;;;2.44;62.95;100943.34;5107418;28;20056;-72
2024/01/22 09:37:49;;;;;;;1.63;1.48;;;;;;;2.68;62.78;100948.00;5100205;28;20040;-71
2024/01/22 09:40:18;;;;;;;2.55;1.42;;;;;;;2.94;61.52;100929.13;5097137;28;20509;-72
2024/01/22 09:43:03;;;;;;;22.60;3.83;;;;;;;3.10;60.43;100938.31;5096279;28;20095;-73
2024/01/22 09:45:33;;;;;;;2.03;1.90;;;;;;;3.22;60.55;100947.34;5096974;28;20062;-72
2024/01/22 09:48:05;;;;;;;2.42;1.70;;;;;;;3.21;59.61;100924.56;5095066;28;20044;-72
2024/01/22 09:50:34;;;;;;;1.67;1.55;;;;;;;3.39;59.35;100920.41;5096267;28;20078;-72
2024/01/22 09:53:10;;;;;;;1.83;1.67;;;;;;;3.58;53.75;100927.16;5096935;28;20113;-72
2024/01/22 09:55:41;;;;;;;0.70;0.70;;;;;;;3.52;50.15;100922.72;5095069;28;20406;-72
2024/01/22 09:58:10;;;;;;;0.95;0.90;;;;;;;3.44;48.63;100918.97;5096454;28;20068;-73
2024/01/22 10:00:40;;;;;;;1.58;1.48;;;;;;;3.30;49.23;100912.41;5096029;28;20036;-72
2024/01/22 10:03:11;;;;;;;0.73;0.73;;;;;;;3.21;49.35;100909.44;5096254;28;20124;-71
2024/01/22 10:05:40;;;;;;;2.15;1.95;;;;;;;3.09;50.04;100902.16;5094660;28;20055;-72
2024/01/22 10:08:09;;;;;;;0.50;0.50;;;;;;;3.02;50.66;100899.25;5096488;28;20033;-72
2024/01/22 10:10:38;;;;;;;0.80;0.80;;;;;;;2.98;52.48;100894.84;5096302;28;20090;-73
2024/01/22 10:13:08;;;;;;;;;;;;;;;3.01;51.43;100900.91;5096671;28;20044;-72
2024/01/22 10:15:38;;;;;;;1.85;1.75;;;;;;;3.07;50.78;100900.34;5096253;28;19926;-72
2024/01/22 10:18:13;;;;;;;0.30;0.30;;;;;;;3.14;51.76;100887.25;5096058;28;20093;-72
2024/01/22 10:20:43;;;;;;;1.35;1.25;;;;;;;3.25;49.29;100881.03;5096004;28;20048;-71
2024/01/22 10:23:15;;;;;;;1.42;1.33;;;;;;;3.21;49.41;100862.38;5095999;28;20044;-71
2024/01/22 10:25:45;;;;;;;1.38;0.88;;;;;;;3.27;50.99;100860.13;5095947;28;20485;-71
2024/01/22 10:28:18;;;;;;;0.52;0.52;;;;;;;3.36;50.76;100849.59;5095541;28;20082;-72
2024/01/22 10:31:03;;;;;;;0.65;0.65;;;;;;;3.36;50.75;100842.03;5095563;28;20051;-72
2024/01/22 10:33:34;;;;;;;0.88;0.88;;;;;;;3.50;49.79;100843.56;5095655;28;20043;-72
2024/01/22 10:36:15;;;;;;;7.90;1.63;;;;;;;3.56;50.87;100836.25;5094558;28;20440;-72
2024/01/22 10:38:46;;;;;;;2.15;1.45;;;;;;;3.60;49.27;100837.28;5095855;28;20105;-72
2024/01/22 10:41:19;;;;;;;0.90;0.90;;;;;;;3.56;50.14;100832.84;5096245;28;20055;-72
2024/01/22 10:43:49;;;;;;;3.42;1.30;;;;;;;3.65;50.39;100829.09;5095260;28;20048;-72
2024/01/22 10:46:20;;;;;;;0.40;0.40;;;;;;;3.73;49.94;100837.88;5095496;28;20043;-71
2024/01/22 10:48:52;;;;;;;0.82;0.82;;;;;;;3.67;50.36;100837.59;5094828;28;20394;-71
2024/01/22 10:51:25;;;;;;;0.75;0.75;;;;;;;3.52;51.02;100819.25;5094394;28;20054;-72
2024/01/22 10:53:55;;;;;;;2.05;1.65;;;;;;;3.59;51.26;100831.34;5095731;28;20059;-72
2024/01/22 10:56:24;;;;;;;;;;;;;;;3.48;51.86;100840.06;5095589;28;20494;-72
2024/01/22 10:58:58;;;;;;;1.65;1.55;;;;;;;3.46;52.20;100849.25;5095407;28;19920;-72
2024/01/22 11:01:32;;;;;;;0.40;0.40;;;;;;;3.36;51.54;100834.47;5093829;28;20052;-72
2024/01/22 11:04:04;;;;;;;3.63;1.80;;;;;;;3.31;52.35;100835.94;5095726;28;20486;-72
2024/01/22 11:06:40;;;;;;;3.55;2.38;;;;;;;3.41;52.17;100842.28;5095072;28;20044;-72
2024/01/22 11:09:12;;;;;;;0.50;0.50;;;;;;;3.53;51.94;100828.53;5093503;28;20076;-72
2024/01/22 11:11:44;;;;;;;1.27;1.13;;;;;;;3.63;51.79;100829.81;5094372;28;20059;-71
2024/01/22 11:14:12;;;;;;;4.70;0.95;;;;;;;3.67;52.04;100821.59;5093456;28;20518;-71
2024/01/22 11:16:41;;;;;;;0.75;0.65;;;;;;;3.65;51.66;100824.03;5095072;28;20046;-71
2024/01/22 11:19:21;;;;;;;1.52;1.42;;;;;;;3.55;51.56;100826.94;5094437;28;20093;-72
2024/01/22 11:21:52;;;;;;;;;;;;;;;3.37;51.33;100821.94;5095345;28;20098;-71
2024/01/22 11:24:24;;;;;;;2.05;1.60;;;;;;;3.33;51.55;100822.59;5094886;28;19946;-72
2024/01/22 11:27:05;;;;;;;0.57;0.57;;;;;;;3.25;51.52;100810.41;5094911;28;20044;-71
2024/01/22 11:29:35;;;;;;;0.93;0.93;;;;;;;3.21;51.83;100804.38;5094891;28;20497;-72
2024/01/22 11:32:27;;;;;;;4.57;3.03;;;;;;;3.20;51.27;100781.59;5094364;28;20090;-71
2024/01/22 11:35:02;;;;;;;1.15;1.10;;;;;;;3.30;51.58;100781.22;5094790;28;20051;-70
2024/01/22 11:37:44;;;;;;;6.93;2.15;;;;;;;3.39;50.53;100785.03;5094657;28;20501;-70
2024/01/22 11:40:16;;;;;;;2.83;1.00;;;;;;;3.33;50.23;100761.19;5094619;28;20147;-70
2024/01/22 11:42:45;;;;;;;1.63;1.33;;;;;;;3.41;49.24;100772.47;5093315;28;20059;-70